sensor_id;sensor_type;location;lat;lon;timestamp;temperature;humidity
43991;DHT22;29654;50.784;20.604;2024-01-25T00:01:11;12.20;57.30
43991;DHT22;29654;50.784;20.604;2024-01-25T00:06:14;12.20;57.40
43991;DHT22;29654;50.784;20.604;2024-01-25T00:11:17;12.20;57.50
43991;DHT22;29654;50.784;20.604;2024-01-25T00:16:21;12.10;57.50
43991;DHT22;29654;50.784;20.604;2024-01-25T00:21:24;12.00;57.50
43991;DHT22;29654;50.784;20.604;2024-01-25T00:26:26;12.00;57.60
43991;DHT22;29654;50.784;20.604;2024-01-25T00:31:30;12.00;57.70
43991;DHT22;29654;50.784;20.604;2024-01-25T00:36:33;12.00;57.70
43991;DHT22;29654;50.784;20.604;2024-01-25T00:41:36;11.90;57.60
43991;DHT22;29654;50.784;20.604;2024-01-25T00:46:42;11.90;57.50
43991;DHT22;29654;50.784;20.604;2024-01-25T00:51:48;11.90;57.50
43991;DHT22;29654;50.784;20.604;2024-01-25T00:56:51;11.90;57.60
43991;DHT22;29654;50.784;20.604;2024-01-25T01:01:57;11.90;57.60
43991;DHT22;29654;50.784;20.604;2024-01-25T01:07:01;11.80;57.60
43991;DHT22;29654;50.784;20.604;2024-01-25T01:12:04;11.90;57.50
43991;DHT22;29654;50.784;20.604;2024-01-25T01:17:08;11.90;57.50
43991;DHT22;29654;50.784;20.604;2024-01-25T01:22:11;11.90;57.50
43991;DHT22;29654;50.784;20.604;2024-01-25T01:27:14;11.90;57.50
43991;DHT22;29654;50.784;20.604;2024-01-25T01:32:18;11.80;57.50
43991;DHT22;29654;50.784;20.604;2024-01-25T01:37:21;11.90;57.60
43991;DHT22;29654;50.784;20.604;2024-01-25T01:42:23;11.80;57.60
43991;DHT22;29654;50.784;20.604;2024-01-25T01:47:28;11.80;57.60
43991;DHT22;29654;50.784;20.604;2024-01-25T01:52:30;11.80;57.60
43991;DHT22;29654;50.784;20.604;2024-01-25T01:57:34;11.80;57.50
43991;DHT22;29654;50.784;20.604;2024-01-25T02:02:38;11.80;57.50
43991;DHT22;29654;50.784;20.604;2024-01-25T02:07:42;11.80;57.50
43991;DHT22;29654;50.784;20.604;2024-01-25T02:12:45;11.80;57.50
43991;DHT22;29654;50.784;20.604;2024-01-25T02:17:49;11.80;57.50
43991;DHT22;29654;50.784;20.604;2024-01-25T02:22:53;11.80;57.40
43991;DHT22;29654;50.784;20.604;2024-01-25T02:27:56;11.70;57.50
43991;DHT22;29654;50.784;20.604;2024-01-25T02:32:59;11.70;57.50
43991;DHT22;29654;50.784;20.604;2024-01-25T02:38:05;11.60;57.50
43991;DHT22;29654;50.784;20.604;2024-01-25T02:43:08;11.60;57.70
43991;DHT22;29654;50.784;20.604;2024-01-25T02:48:11;11.60;57.70
43991;DHT22;29654;50.784;20.604;2024-01-25T02:53:15;11.50;57.70
43991;DHT22;29654;50.784;20.604;2024-01-25T02:58:18;11.50;57.80
43991;DHT22;29654;50.784;20.604;2024-01-25T03:03:21;11.50;57.80
43991;DHT22;29654;50.784;20.604;2024-01-25T03:08:27;11.50;57.80
43991;DHT22;29654;50.784;20.604;2024-01-25T03:13:34;11.50;57.80
43991;DHT22;29654;50.784;20.604;2024-01-25T03:18:39;11.50;57.80
43991;DHT22;29654;50.784;20.604;2024-01-25T03:23:46;11.50;57.80
43991;DHT22;29654;50.784;20.604;2024-01-25T03:28:50;11.50;57.80
43991;DHT22;29654;50.784;20.604;2024-01-25T03:33:53;11.50;57.80
43991;DHT22;29654;50.784;20.604;2024-01-25T03:38:58;11.50;57.80
43991;DHT22;29654;50.784;20.604;2024-01-25T03:44:00;11.50;57.80
43991;DHT22;29654;50.784;20.604;2024-01-25T03:49:03;11.40;57.80
43991;DHT22;29654;50.784;20.604;2024-01-25T03:54:07;11.40;57.80
43991;DHT22;29654;50.784;20.604;2024-01-25T03:59:10;11.30;57.90
43991;DHT22;29654;50.784;20.604;2024-01-25T04:04:14;11.30;57.90
43991;DHT22;29654;50.784;20.604;2024-01-25T04:09:19;11.20;57.80
43991;DHT22;29654;50.784;20.604;2024-01-25T04:14:21;11.20;58.00
43991;DHT22;29654;50.784;20.604;2024-01-25T04:19:24;11.20;58.10
43991;DHT22;29654;50.784;20.604;2024-01-25T04:24:28;11.10;58.00
43991;DHT22;29654;50.784;20.604;2024-01-25T04:29:31;11.10;58.10
43991;DHT22;29654;50.784;20.604;2024-01-25T04:34:35;11.10;58.20
43991;DHT22;29654;50.784;20.604;2024-01-25T04:39:40;11.00;58.20
43991;DHT22;29654;50.784;20.604;2024-01-25T04:44:42;11.00;58.30
43991;DHT22;29654;50.784;20.604;2024-01-25T04:49:45;11.00;58.30
43991;DHT22;29654;50.784;20.604;2024-01-25T04:54:50;11.00;58.40
43991;DHT22;29654;50.784;20.604;2024-01-25T04:59:52;11.00;58.40
43991;DHT22;29654;50.784;20.604;2024-01-25T05:04:55;11.00;58.30
43991;DHT22;29654;50.784;20.604;2024-01-25T05:09:59;11.00;58.30
43991;DHT22;29654;50.784;20.604;2024-01-25T05:15:01;11.00;58.40
43991;DHT22;29654;50.784;20.604;2024-01-25T05:20:06;11.00;58.40
43991;DHT22;29654;50.784;20.604;2024-01-25T05:25:10;11.00;58.50
43991;DHT22;29654;50.784;20.604;2024-01-25T05:30:14;11.00;58.50
43991;DHT22;29654;50.784;20.604;2024-01-25T05:35:17;11.00;58.50
43991;DHT22;29654;50.784;20.604;2024-01-25T05:40:21;11.00;58.50
43991;DHT22;29654;50.784;20.604;2024-01-25T05:45:24;11.00;58.40
43991;DHT22;29654;50.784;20.604;2024-01-25T05:50:27;11.00;58.40
43991;DHT22;29654;50.784;20.604;2024-01-25T05:55:31;11.00;58.40
43991;DHT22;29654;50.784;20.604;2024-01-25T06:00:34;11.10;58.30
43991;DHT22;29654;50.784;20.604;2024-01-25T06:05:36;11.10;58.20
43991;DHT22;29654;50.784;20.604;2024-01-25T06:10:40;11.00;58.10
43991;DHT22;29654;50.784;20.604;2024-01-25T06:15:43;11.10;58.20
43991;DHT22;29654;50.784;20.604;2024-01-25T06:20:46;11.10;58.20
43991;DHT22;29654;50.784;20.604;2024-01-25T06:25:50;11.00;58.10
43991;DHT22;29654;50.784;20.604;2024-01-25T06:30:53;11.00;58.20
43991;DHT22;29654;50.784;20.604;2024-01-25T06:35:57;11.00;58.30
43991;DHT22;29654;50.784;20.604;2024-01-25T06:41:02;11.00;58.50
43991;DHT22;29654;50.784;20.604;2024-01-25T06:46:05;11.00;58.50
43991;DHT22;29654;50.784;20.604;2024-01-25T06:51:08;10.90;58.60
43991;DHT22;29654;50.784;20.604;2024-01-25T06:56:12;10.90;58.60
43991;DHT22;29654;50.784;20.604;2024-01-25T07:01:20;10.90;58.50
43991;DHT22;29654;50.784;20.604;2024-01-25T07:06:23;10.90;58.70
43991;DHT22;29654;50.784;20.604;2024-01-25T07:11:29;10.90;58.60
43991;DHT22;29654;50.784;20.604;2024-01-25T07:16:32;10.90;58.70
43991;DHT22;29654;50.784;20.604;2024-01-25T07:21:34;10.80;58.60
43991;DHT22;29654;50.784;20.604;2024-01-25T07:26:38;10.80;58.70
43991;DHT22;29654;50.784;20.604;2024-01-25T07:31:41;10.80;59.10
43991;DHT22;29654;50.784;20.604;2024-01-25T07:36:44;10.70;59.00
43991;DHT22;29654;50.784;20.604;2024-01-25T07:41:48;10.70;59.00
43991;DHT22;29654;50.784;20.604;2024-01-25T07:46:50;10.70;59.10
43991;DHT22;29654;50.784;20.604;2024-01-25T07:51:53;10.70;59.20
43991;DHT22;29654;50.784;20.604;2024-01-25T07:56:58;10.70;59.40
43991;DHT22;29654;50.784;20.604;2024-01-25T08:02:01;10.70;59.50
43991;DHT22;29654;50.784;20.604;2024-01-25T08:07:04;10.70;59.60
43991;DHT22;29654;50.784;20.604;2024-01-25T08:12:08;10.60;59.70
43991;DHT22;29654;50.784;20.604;2024-01-25T08:17:11;10.60;59.90
43991;DHT22;29654;50.784;20.604;2024-01-25T08:22:13;10.60;60.00
43991;DHT22;29654;50.784;20.604;2024-01-25T08:27:17;10.60;59.90
43991;DHT22;29654;50.784;20.604;2024-01-25T08:32:20;10.60;60.00
43991;DHT22;29654;50.784;20.604;2024-01-25T08:37:23;10.70;60.00
43991;DHT22;29654;50.784;20.604;2024-01-25T08:42:27;10.70;60.00
43991;DHT22;29654;50.784;20.604;2024-01-25T08:47:29;10.70;60.00
43991;DHT22;29654;50.784;20.604;2024-01-25T08:52:32;10.70;60.00
43991;DHT22;29654;50.784;20.604;2024-01-25T08:57:37;10.70;60.00
43991;DHT22;29654;50.784;20.604;2024-01-25T09:02:40;10.80;60.20
43991;DHT22;29654;50.784;20.604;2024-01-25T09:07:44;10.80;60.00
43991;DHT22;29654;50.784;20.604;2024-01-25T09:12:49;10.80;60.20
43991;DHT22;29654;50.784;20.604;2024-01-25T09:17:52;10.90;60.10
43991;DHT22;29654;50.784;20.604;2024-01-25T09:22:55;10.90;60.10
43991;DHT22;29654;50.784;20.604;2024-01-25T09:27:59;10.80;60.00
43991;DHT22;29654;50.784;20.604;2024-01-25T09:33:03;10.80;60.10
43991;DHT22;29654;50.784;20.604;2024-01-25T09:38:06;10.80;60.20
43991;DHT22;29654;50.784;20.604;2024-01-25T09:43:11;10.80;60.20
43991;DHT22;29654;50.784;20.604;2024-01-25T09:48:14;10.80;60.40
43991;DHT22;29654;50.784;20.604;2024-01-25T09:53:21;10.90;60.40
43991;DHT22;29654;50.784;20.604;2024-01-25T09:58:32;10.90;60.40
43991;DHT22;29654;50.784;20.604;2024-01-25T10:03:43;10.90;60.50
43991;DHT22;29654;50.784;20.604;2024-01-25T10:08:46;10.90;60.40
43991;DHT22;29654;50.784;20.604;2024-01-25T10:13:50;10.90;60.70
43991;DHT22;29654;50.784;20.604;2024-01-25T10:18:54;10.90;61.10
43991;DHT22;29654;50.784;20.604;2024-01-25T10:23:57;11.00;61.10
43991;DHT22;29654;50.784;20.604;2024-01-25T10:29:02;11.00;61.00
43991;DHT22;29654;50.784;20.604;2024-01-25T10:34:05;11.00;61.10
43991;DHT22;29654;50.784;20.604;2024-01-25T10:39:12;11.00;61.00
43991;DHT22;29654;50.784;20.604;2024-01-25T10:44:19;11.00;61.10
43991;DHT22;29654;50.784;20.604;2024-01-25T10:49:25;11.00;61.10
43991;DHT22;29654;50.784;20.604;2024-01-25T10:54:30;11.00;61.10
43991;DHT22;29654;50.784;20.604;2024-01-25T10:59:34;11.10;61.00
43991;DHT22;29654;50.784;20.604;2024-01-25T11:04:37;11.10;61.10
43991;DHT22;29654;50.784;20.604;2024-01-25T11:09:40;11.10;60.90
43991;DHT22;29654;50.784;20.604;2024-01-25T11:14:44;11.10;60.90
43991;DHT22;29654;50.784;20.604;2024-01-25T11:19:48;11.00;60.80
43991;DHT22;29654;50.784;20.604;2024-01-25T11:24:52;11.00;60.80
43991;DHT22;29654;50.784;20.604;2024-01-25T11:29:56;11.00;60.90
43991;DHT22;29654;50.784;20.604;2024-01-25T11:34:58;11.00;61.10
43991;DHT22;29654;50.784;20.604;2024-01-25T11:40:02;11.00;61.30
43991;DHT22;29654;50.784;20.604;2024-01-25T11:45:08;11.00;61.40
43991;DHT22;29654;50.784;20.604;2024-01-25T11:50:13;11.00;61.40
43991;DHT22;29654;50.784;20.604;2024-01-25T11:55:15;11.00;61.40
43991;DHT22;29654;50.784;20.604;2024-01-25T12:00:20;11.00;61.50
43991;DHT22;29654;50.784;20.604;2024-01-25T12:05:24;11.00;61.60
43991;DHT22;29654;50.784;20.604;2024-01-25T12:10:26;11.00;61.70
43991;DHT22;29654;50.784;20.604;2024-01-25T12:15:32;11.00;61.70
43991;DHT22;29654;50.784;20.604;2024-01-25T12:20:35;11.00;61.70
43991;DHT22;29654;50.784;20.604;2024-01-25T12:25:39;11.00;61.70
43991;DHT22;29654;50.784;20.604;2024-01-25T12:30:44;11.00;61.90
43991;DHT22;29654;50.784;20.604;2024-01-25T12:35:47;11.00;61.90
43991;DHT22;29654;50.784;20.604;2024-01-25T12:40:50;11.00;61.70
43991;DHT22;29654;50.784;20.604;2024-01-25T12:45:54;11.00;61.70
43991;DHT22;29654;50.784;20.604;2024-01-25T12:50:56;11.00;61.70
43991;DHT22;29654;50.784;20.604;2024-01-25T12:55:59;10.90;61.70
43991;DHT22;29654;50.784;20.604;2024-01-25T13:01:03;10.90;62.00
43991;DHT22;29654;50.784;20.604;2024-01-25T13:06:06;10.90;61.90
43991;DHT22;29654;50.784;20.604;2024-01-25T13:11:10;10.90;61.90
43991;DHT22;29654;50.784;20.604;2024-01-25T13:16:14;10.90;62.00
43991;DHT22;29654;50.784;20.604;2024-01-25T13:21:17;10.90;62.00
43991;DHT22;29654;50.784;20.604;2024-01-25T13:26:20;10.90;62.60
43991;DHT22;29654;50.784;20.604;2024-01-25T13:31:24;11.00;62.20
43991;DHT22;29654;50.784;20.604;2024-01-25T13:36:27;11.00;61.90
43991;DHT22;29654;50.784;20.604;2024-01-25T13:41:29;11.00;62.00
43991;DHT22;29654;50.784;20.604;2024-01-25T13:46:33;11.00;61.70
43991;DHT22;29654;50.784;20.604;2024-01-25T13:51:36;11.00;61.60
43991;DHT22;29654;50.784;20.604;2024-01-25T13:56:39;11.00;61.50
43991;DHT22;29654;50.784;20.604;2024-01-25T14:01:43;10.90;61.60
43991;DHT22;29654;50.784;20.604;2024-01-25T14:06:45;10.90;61.70
43991;DHT22;29654;50.784;20.604;2024-01-25T14:11:48;10.90;61.90
43991;DHT22;29654;50.784;20.604;2024-01-25T14:16:52;10.80;62.00
43991;DHT22;29654;50.784;20.604;2024-01-25T14:21:55;10.80;62.00
43991;DHT22;29654;50.784;20.604;2024-01-25T14:26:58;10.80;62.00
43991;DHT22;29654;50.784;20.604;2024-01-25T14:32:02;10.80;62.00
43991;DHT22;29654;50.784;20.604;2024-01-25T14:37:05;10.70;62.00
43991;DHT22;29654;50.784;20.604;2024-01-25T14:42:09;10.70;62.10
43991;DHT22;29654;50.784;20.604;2024-01-25T14:47:14;10.70;62.00
43991;DHT22;29654;50.784;20.604;2024-01-25T14:52:21;10.60;62.00
43991;DHT22;29654;50.784;20.604;2024-01-25T14:57:24;10.60;62.00
43991;DHT22;29654;50.784;20.604;2024-01-25T15:02:28;10.60;62.10
43991;DHT22;29654;50.784;20.604;2024-01-25T15:07:31;10.60;62.30
43991;DHT22;29654;50.784;20.604;2024-01-25T15:12:36;10.50;62.30
43991;DHT22;29654;50.784;20.604;2024-01-25T15:17:41;10.50;62.30
43991;DHT22;29654;50.784;20.604;2024-01-25T15:22:44;10.50;62.30
43991;DHT22;29654;50.784;20.604;2024-01-25T15:27:47;10.50;62.20
43991;DHT22;29654;50.784;20.604;2024-01-25T15:32:51;10.50;62.30
43991;DHT22;29654;50.784;20.604;2024-01-25T15:37:54;10.50;62.30
43991;DHT22;29654;50.784;20.604;2024-01-25T15:42:57;10.50;62.40
43991;DHT22;29654;50.784;20.604;2024-01-25T15:48:01;10.40;62.30
43991;DHT22;29654;50.784;20.604;2024-01-25T15:53:04;10.50;62.40
43991;DHT22;29654;50.784;20.604;2024-01-25T15:58:07;10.50;62.20
43991;DHT22;29654;50.784;20.604;2024-01-25T16:03:12;10.50;62.20
43991;DHT22;29654;50.784;20.604;2024-01-25T16:08:15;10.50;62.20
43991;DHT22;29654;50.784;20.604;2024-01-25T16:13:18;10.50;62.10
43991;DHT22;29654;50.784;20.604;2024-01-25T16:18:22;10.50;62.10
43991;DHT22;29654;50.784;20.604;2024-01-25T16:23:24;10.50;62.20
43991;DHT22;29654;50.784;20.604;2024-01-25T16:28:27;10.40;62.20
43991;DHT22;29654;50.784;20.604;2024-01-25T16:33:31;10.40;62.30
43991;DHT22;29654;50.784;20.604;2024-01-25T16:38:35;10.40;62.40
43991;DHT22;29654;50.784;20.604;2024-01-25T16:43:37;10.40;62.30
43991;DHT22;29654;50.784;20.604;2024-01-25T16:48:41;10.40;62.20
43991;DHT22;29654;50.784;20.604;2024-01-25T16:53:44;10.40;62.30
43991;DHT22;29654;50.784;20.604;2024-01-25T16:58:47;10.40;62.30
43991;DHT22;29654;50.784;20.604;2024-01-25T17:03:51;10.40;62.40
43991;DHT22;29654;50.784;20.604;2024-01-25T17:08:54;10.40;62.50
43991;DHT22;29654;50.784;20.604;2024-01-25T17:13:56;10.40;62.50
43991;DHT22;29654;50.784;20.604;2024-01-25T17:19:00;10.40;62.30
43991;DHT22;29654;50.784;20.604;2024-01-25T17:24:04;10.40;62.30
43991;DHT22;29654;50.784;20.604;2024-01-25T17:29:08;10.40;62.30
43991;DHT22;29654;50.784;20.604;2024-01-25T17:34:13;10.40;62.40
43991;DHT22;29654;50.784;20.604;2024-01-25T17:39:15;10.40;62.30
43991;DHT22;29654;50.784;20.604;2024-01-25T17:44:18;10.30;62.30
43991;DHT22;29654;50.784;20.604;2024-01-25T17:49:22;10.30;62.40
43991;DHT22;29654;50.784;20.604;2024-01-25T17:54:25;10.30;62.50
43991;DHT22;29654;50.784;20.604;2024-01-25T17:59:28;10.30;62.50
43991;DHT22;29654;50.784;20.604;2024-01-25T18:04:32;10.30;62.80
43991;DHT22;29654;50.784;20.604;2024-01-25T18:09:35;10.40;62.60
43991;DHT22;29654;50.784;20.604;2024-01-25T18:14:38;10.40;62.40
43991;DHT22;29654;50.784;20.604;2024-01-25T18:19:42;10.30;62.30
43991;DHT22;29654;50.784;20.604;2024-01-25T18:24:44;10.30;62.30
43991;DHT22;29654;50.784;20.604;2024-01-25T18:29:47;10.30;62.30
43991;DHT22;29654;50.784;20.604;2024-01-25T18:34:52;10.30;62.30
43991;DHT22;29654;50.784;20.604;2024-01-25T18:39:54;10.30;62.60
43991;DHT22;29654;50.784;20.604;2024-01-25T18:44:57;10.30;62.40
43991;DHT22;29654;50.784;20.604;2024-01-25T18:50:02;10.40;62.30
43991;DHT22;29654;50.784;20.604;2024-01-25T18:55:06;10.30;62.10
43991;DHT22;29654;50.784;20.604;2024-01-25T19:00:10;10.30;62.20
43991;DHT22;29654;50.784;20.604;2024-01-25T19:05:16;10.30;61.90
43991;DHT22;29654;50.784;20.604;2024-01-25T19:10:19;10.20;61.00
43991;DHT22;29654;50.784;20.604;2024-01-25T19:15:22;10.10;60.80
43991;DHT22;29654;50.784;20.604;2024-01-25T19:20:26;9.90;60.60
43991;DHT22;29654;50.784;20.604;2024-01-25T19:25:29;9.80;60.80
43991;DHT22;29654;50.784;20.604;2024-01-25T19:30:32;9.70;60.80
43991;DHT22;29654;50.784;20.604;2024-01-25T19:35:37;9.60;60.70
43991;DHT22;29654;50.784;20.604;2024-01-25T19:40:43;9.50;61.20
43991;DHT22;29654;50.784;20.604;2024-01-25T19:45:48;9.50;61.30
43991;DHT22;29654;50.784;20.604;2024-01-25T19:50:53;9.50;61.30
43991;DHT22;29654;50.784;20.604;2024-01-25T19:55:55;9.50;61.10
43991;DHT22;29654;50.784;20.604;2024-01-25T20:00:59;9.40;60.90
43991;DHT22;29654;50.784;20.604;2024-01-25T20:06:06;9.30;61.00
43991;DHT22;29654;50.784;20.604;2024-01-25T20:11:11;9.30;61.30
43991;DHT22;29654;50.784;20.604;2024-01-25T20:16:14;9.30;61.20
43991;DHT22;29654;50.784;20.604;2024-01-25T20:21:20;9.30;61.20
43991;DHT22;29654;50.784;20.604;2024-01-25T20:26:22;9.30;61.00
43991;DHT22;29654;50.784;20.604;2024-01-25T20:31:25;9.30;61.00
43991;DHT22;29654;50.784;20.604;2024-01-25T20:36:29;9.30;61.80
43991;DHT22;29654;50.784;20.604;2024-01-25T20:41:32;9.30;60.90
43991;DHT22;29654;50.784;20.604;2024-01-25T20:46:35;9.30;60.80
43991;DHT22;29654;50.784;20.604;2024-01-25T20:51:39;9.20;60.60
43991;DHT22;29654;50.784;20.604;2024-01-25T20:56:42;9.20;60.60
43991;DHT22;29654;50.784;20.604;2024-01-25T21:01:45;9.10;60.60
43991;DHT22;29654;50.784;20.604;2024-01-25T21:06:50;9.10;60.60
43991;DHT22;29654;50.784;20.604;2024-01-25T21:11:54;9.00;60.60
43991;DHT22;29654;50.784;20.604;2024-01-25T21:16:57;9.00;60.50
43991;DHT22;29654;50.784;20.604;2024-01-25T21:22:02;8.90;60.60
43991;DHT22;29654;50.784;20.604;2024-01-25T21:27:06;8.90;60.50
43991;DHT22;29654;50.784;20.604;2024-01-25T21:32:09;8.80;60.40
43991;DHT22;29654;50.784;20.604;2024-01-25T21:37:13;8.80;60.40
43991;DHT22;29654;50.784;20.604;2024-01-25T21:42:16;8.70;60.40
43991;DHT22;29654;50.784;20.604;2024-01-25T21:47:19;8.70;60.60
43991;DHT22;29654;50.784;20.604;2024-01-25T21:52:25;8.70;60.60
43991;DHT22;29654;50.784;20.604;2024-01-25T21:57:27;8.70;60.60
43991;DHT22;29654;50.784;20.604;2024-01-25T22:02:31;8.60;60.40
43991;DHT22;29654;50.784;20.604;2024-01-25T22:07:54;8.60;60.40
43991;DHT22;29654;50.784;20.604;2024-01-25T22:12:57;8.60;60.50
43991;DHT22;29654;50.784;20.604;2024-01-25T22:17:59;8.50;60.40
43991;DHT22;29654;50.784;20.604;2024-01-25T22:23:04;8.50;60.10
43991;DHT22;29654;50.784;20.604;2024-01-25T22:28:07;8.40;60.10
43991;DHT22;29654;50.784;20.604;2024-01-25T22:33:10;8.40;60.90
43991;DHT22;29654;50.784;20.604;2024-01-25T22:38:17;8.30;60.00
43991;DHT22;29654;50.784;20.604;2024-01-25T22:43:19;8.30;60.90
43991;DHT22;29654;50.784;20.604;2024-01-25T22:48:23;8.20;60.00
43991;DHT22;29654;50.784;20.604;2024-01-25T22:53:27;8.20;60.10
43991;DHT22;29654;50.784;20.604;2024-01-25T22:58:30;8.10;60.00
43991;DHT22;29654;50.784;20.604;2024-01-25T23:03:33;8.10;60.00
43991;DHT22;29654;50.784;20.604;2024-01-25T23:08:37;8.10;60.00
43991;DHT22;29654;50.784;20.604;2024-01-25T23:13:41;8.10;60.00
43991;DHT22;29654;50.784;20.604;2024-01-25T23:18:44;8.10;60.00
43991;DHT22;29654;50.784;20.604;2024-01-25T23:23:48;8.10;60.00
43991;DHT22;29654;50.784;20.604;2024-01-25T23:28:51;8.10;60.00
43991;DHT22;29654;50.784;20.604;2024-01-25T23:33:54;8.10;60.00
43991;DHT22;29654;50.784;20.604;2024-01-25T23:38:59;8.10;59.80
43991;DHT22;29654;50.784;20.604;2024-01-25T23:44:03;8.00;59.70
43991;DHT22;29654;50.784;20.604;2024-01-25T23:49:07;7.90;59.60
43991;DHT22;29654;50.784;20.604;2024-01-25T23:54:12;7.90;59.60
43991;DHT22;29654;50.784;20.604;2024-01-25T23:59:15;7.90;59.60
